Time;durP1;ratioP1;P1;durP2;ratioP2;P2;SDS_P1;SDS_P2;PMS_P1;PMS_P2;Temp;Humidity;BMP_temperature;BMP_pressure;BME280_temperature;BME280_humidity;BME280_pressure;Samples;Min_cycle;Max_cycle;Signal;HPM_P1;HPM_P2
2022/11/09 00:02:09;;;;;;;80.28;32.08;;;9.40;99.90;;;;;;6232661;23;20399;-79
2022/11/09 00:04:35;;;;;;;76.40;31.98;;;9.40;99.90;;;;;;6231187;23;20407;-79
2022/11/09 00:07:01;;;;;;;87.38;34.53;;;9.50;99.90;;;;;;6229992;23;20005;-79
2022/11/09 00:09:27;;;;;;;74.68;32.63;;;9.40;99.90;;;;;;6229357;23;20028;-79
2022/11/09 00:11:53;;;;;;;81.75;34.17;;;9.40;99.90;;;;;;6201861;23;20402;-81
2022/11/09 00:14:19;;;;;;;69.13;31.02;;;9.40;99.90;;;;;;6228992;23;20005;-78
2022/11/09 00:16:45;;;;;;;71.95;30.55;;;9.40;99.90;;;;;;6231177;23;20005;-78
2022/11/09 00:19:12;;;;;;;73.55;32.17;;;9.30;99.90;;;;;;6203650;23;20012;-80
2022/11/09 00:21:38;;;;;;;77.20;33.35;;;9.30;99.90;;;;;;6226114;23;20067;-79
2022/11/09 00:24:05;;;;;;;78.55;33.17;;;9.20;99.90;;;;;;6225901;23;20020;-79
2022/11/09 00:26:31;;;;;;;71.50;30.63;;;9.20;99.90;;;;;;6225053;23;20005;-81
2022/11/09 00:28:58;;;;;;;65.97;30.52;;;9.20;99.90;;;;;;6201268;23;20028;-78
2022/11/09 00:31:24;;;;;;;73.80;31.40;;;9.20;99.90;;;;;;6230023;23;20001;-79
2022/11/09 00:33:52;;;;;;;71.70;31.50;;;9.20;99.90;;;;;;6225560;23;20273;-79
2022/11/09 00:36:19;;;;;;;69.53;32.00;;;9.20;99.90;;;;;;6225356;23;20001;-80
2022/11/09 00:38:56;;;;;;;75.40;33.45;;;9.20;99.90;;;;;;6198693;23;20019;-79
2022/11/09 00:41:23;;;;;;;70.65;30.13;;;9.20;99.90;;;;;;6227981;23;20087;-79
2022/11/09 00:43:49;;;;;;;68.93;29.85;;;9.20;99.90;;;;;;6199309;23;20056;-78
2022/11/09 00:46:16;;;;;;;68.63;30.60;;;9.20;99.90;;;;;;6226738;23;20016;-80
2022/11/09 00:48:43;;;;;;;66.18;28.90;;;9.30;99.90;;;;;;6200349;23;20008;-79
2022/11/09 00:51:09;;;;;;;72.40;31.80;;;9.30;99.90;;;;;;6202721;23;20096;-79
2022/11/09 00:53:35;;;;;;;80.13;33.22;;;9.30;99.90;;;;;;6230102;23;20032;-79
2022/11/09 00:56:04;;;;;;;83.60;34.20;;;9.30;99.90;;;;;;6220194;23;20047;-87
2022/11/09 00:58:34;;;;;;;81.30;34.30;;;9.30;99.90;;;;;;6260380;23;20027;-87
2022/11/09 01:01:06;;;;;;;73.90;32.33;;;9.30;99.90;;;;;;6261411;23;20012;-88
2022/11/09 01:03:32;;;;;;;79.05;33.47;;;9.30;99.90;;;;;;6261467;23;20000;-87
2022/11/09 01:05:59;;;;;;;77.38;33.83;;;9.30;99.90;;;;;;6236319;23;20016;-87
2022/11/09 01:08:25;;;;;;;73.93;33.85;;;9.30;99.90;;;;;;6234990;23;20015;-87
2022/11/09 01:10:51;;;;;;;73.22;33.22;;;9.20;99.90;;;;;;6259771;23;20203;-88
2022/11/09 01:13:18;;;;;;;74.88;31.77;;;9.20;99.90;;;;;;6261191;23;20011;-87
2022/11/09 01:15:52;;;;;;;74.90;31.83;;;9.30;99.90;;;;;;6260290;22;20026;-87
2022/11/09 01:18:20;;;;;;;71.82;31.85;;;9.30;99.90;;;;;;6259278;23;20529;-86
2022/11/09 01:20:47;;;;;;;71.63;32.03;;;9.30;99.90;;;;;;6268647;22;20000;-87
2022/11/09 01:23:15;;;;;;;72.97;33.10;;;9.20;99.90;;;;;;6271369;23;20026;-86
2022/11/09 01:25:41;;;;;;;71.40;32.58;;;9.30;99.90;;;;;;6264068;23;20004;-88
2022/11/09 01:28:09;;;;;;;67.47;31.67;;;9.40;99.90;;;;;;6263035;23;20008;-87
2022/11/09 01:30:37;;;;;;;71.25;33.05;;;9.30;99.90;;;;;;6264454;22;20337;-86
2022/11/09 01:33:08;;;;;;;72.97;33.55;;;9.30;99.90;;;;;;6257394;22;20012;-87
2022/11/09 01:35:36;;;;;;;68.10;31.70;;;9.30;99.90;;;;;;6258168;23;20453;-87
2022/11/09 01:38:04;;;;;;;69.10;31.00;;;9.40;99.90;;;;;;6267832;22;20004;-86
2022/11/09 01:40:33;;;;;;;71.80;31.95;;;9.30;99.90;;;;;;6268860;23;20008;-86
2022/11/09 01:43:18;;;;;;;82.10;33.50;;;9.40;99.90;;;;;;6263116;23;20007;-85
2022/11/09 01:46:01;;;;;;;78.55;34.00;;;9.40;99.90;;;;;;6265399;22;20051;-86
2022/11/09 01:48:38;;;;;;;73.53;32.17;;;9.50;99.90;;;;;;6262908;23;20031;-85
2022/11/09 01:51:29;;;;;;;76.95;32.10;;;9.50;99.90;;;;;;6259242;23;20012;-84
2022/11/09 01:54:01;;;;;;;69.50;31.63;;;9.50;99.90;;;;;;6258518;23;20054;-86
2022/11/09 01:56:28;;;;;;;69.35;31.55;;;9.50;99.90;;;;;;6259247;23;20012;-85
2022/11/09 01:59:04;;;;;;;64.07;30.77;;;9.60;99.90;;;;;;6262778;23;20011;-85
2022/11/09 02:01:31;;;;;;;72.63;32.70;;;9.50;99.90;;;;;;6264289;23;20495;-86
2022/11/09 02:04:18;;;;;;;63.58;30.00;;;9.60;99.90;;;;;;6266670;23;20000;-85
2022/11/09 02:06:44;;;;;;;;;;;9.50;99.90;;;;;;6270062;22;19992;-85
2022/11/09 02:09:40;;;;;;;66.85;31.08;;;9.60;99.90;;;;;;6272493;22;19902;-86
2022/11/09 02:12:07;;;;;;;68.60;30.38;;;9.50;99.90;;;;;;6274298;22;20003;-86
2022/11/09 02:14:34;;;;;;;70.28;32.13;;;9.50;99.90;;;;;;6247964;22;19992;-86
2022/11/09 02:17:00;;;;;;;77.75;34.33;;;9.50;99.90;;;;;;6273149;22;19999;-86
2022/11/09 02:19:26;;;;;;;73.03;32.75;;;9.50;99.90;;;;;;6273215;22;19984;-86
2022/11/09 02:21:52;;;;;;;79.22;34.03;;;9.50;99.90;;;;;;6248091;22;20059;-85
2022/11/09 02:24:18;;;;;;;86.88;36.97;;;9.50;99.90;;;;;;6273558;22;20000;-85
2022/11/09 02:26:51;;;;;;;78.05;34.95;;;9.50;99.90;;;;;;6271972;22;20008;-86
2022/11/09 02:29:47;;;;;;;82.38;34.92;;;9.50;99.90;;;;;;6247832;22;20026;-87
2022/11/09 02:32:22;;;;;;;87.28;34.95;;;9.50;99.90;;;;;;6249310;22;20003;-86
2022/11/09 02:34:51;;;;;;;89.13;36.08;;;9.50;99.90;;;;;;6273152;22;20017;-86
2022/11/09 02:37:49;;;;;;;91.30;36.10;;;9.50;99.90;;;;;;6270595;23;20000;-88
2022/11/09 02:40:37;;;;;;;104.28;38.80;;;9.50;99.90;;;;;;6269309;22;20063;-85
2022/11/09 02:43:06;;;;;;;98.95;37.60;;;9.40;99.90;;;;;;6269823;22;20008;-87
2022/11/09 02:45:32;;;;;;;111.45;41.58;;;9.40;99.90;;;;;;6268288;23;20008;-87
2022/11/09 02:47:58;;;;;;;107.38;39.40;;;9.40;99.90;;;;;;6267528;23;20499;-88
2022/11/09 02:50:26;;;;;;;98.68;38.00;;;9.40;99.90;;;;;;6264813;23;20004;-88
2022/11/09 02:52:51;;;;;;;110.32;39.83;;;9.30;99.90;;;;;;6266479;23;20006;-86
2022/11/09 02:55:18;;;;;;;104.13;38.10;;;9.40;99.90;;;;;;6265479;22;20075;-87
2022/11/09 02:57:44;;;;;;;109.60;38.05;;;9.40;99.90;;;;;;6238611;23;20008;-85
2022/11/09 03:00:12;;;;;;;107.75;37.58;;;9.40;99.90;;;;;;6240255;23;20030;-87
2022/11/09 03:02:39;;;;;;;98.43;37.00;;;9.50;99.90;;;;;;6242537;23;20001;-87
2022/11/09 03:05:05;;;;;;;102.80;37.38;;;9.50;99.90;;;;;;6268110;22;20004;-87
2022/11/09 03:07:31;;;;;;;102.78;39.65;;;9.50;99.90;;;;;;6265818;22;20000;-87
2022/11/09 03:09:57;;;;;;;96.38;37.50;;;9.50;99.90;;;;;;6268387;22;20343;-86
2022/11/09 03:12:27;;;;;;;104.72;37.85;;;9.50;99.90;;;;;;6266748;23;20008;-86
2022/11/09 03:14:59;;;;;;;96.70;38.53;;;9.50;99.90;;;;;;6262288;23;20008;-85
2022/11/09 03:17:26;;;;;;;106.68;41.10;;;9.60;99.90;;;;;;6238957;23;20008;-86
2022/11/09 03:19:53;;;;;;;94.15;37.78;;;9.60;99.90;;;;;;6266201;23;20004;-85
2022/11/09 03:22:20;;;;;;;92.20;36.88;;;9.60;99.90;;;;;;6247272;22;20004;-85
2022/11/09 03:24:47;;;;;;;96.80;38.45;;;9.60;99.90;;;;;;6272825;22;19995;-86
2022/11/09 03:27:13;;;;;;;98.88;38.58;;;9.60;99.90;;;;;;6272339;22;19984;-85
2022/11/09 03:29:39;;;;;;;98.57;38.05;;;9.60;99.90;;;;;;6272210;22;19992;-86
2022/11/09 03:32:06;;;;;;;98.50;37.33;;;9.60;99.90;;;;;;6272627;22;20003;-86
2022/11/09 03:34:34;;;;;;;101.30;38.33;;;9.60;99.90;;;;;;6272752;22;20040;-86
2022/11/09 03:37:00;;;;;;;108.90;39.30;;;9.70;99.90;;;;;;6273494;22;20003;-84
2022/11/09 03:39:26;;;;;;;102.90;39.08;;;9.70;99.90;;;;;;6271648;22;19992;-86
2022/11/09 03:41:52;;;;;;;94.68;37.28;;;9.60;99.90;;;;;;6272845;22;20084;-84
2022/11/09 03:44:19;;;;;;;93.45;36.35;;;9.60;99.90;;;;;;6272294;22;20015;-86
2022/11/09 03:46:45;;;;;;;84.40;33.80;;;9.70;99.90;;;;;;6273161;22;20054;-85
2022/11/09 03:49:11;;;;;;;82.70;35.55;;;9.70;99.90;;;;;;6246743;22;20000;-84
2022/11/09 03:51:38;;;;;;;92.47;39.42;;;9.70;99.90;;;;;;6274387;22;19996;-86
2022/11/09 03:54:04;;;;;;;85.00;35.67;;;9.70;99.90;;;;;;6275500;22;20015;-86
2022/11/09 03:56:30;;;;;;;91.53;37.47;;;9.70;99.90;;;;;;6274886;22;20027;-85
2022/11/09 03:58:56;;;;;;;90.43;37.15;;;9.70;99.90;;;;;;6274520;22;20011;-85
2022/11/09 04:01:22;;;;;;;95.20;36.55;;;9.80;99.90;;;;;;6274565;22;20000;-85
2022/11/09 04:03:48;;;;;;;94.82;37.58;;;9.80;99.90;;;;;;6274291;22;19991;-86
2022/11/09 04:06:13;;;;;;;88.78;36.72;;;9.80;99.90;;;;;;6273795;22;20035;-85
2022/11/09 04:08:39;;;;;;;89.90;36.95;;;9.80;99.90;;;;;;6273558;22;20003;-85
2022/11/09 04:11:05;;;;;;;84.60;36.63;;;9.80;99.90;;;;;;6274004;22;20015;-86
2022/11/09 04:13:31;;;;;;;94.30;37.70;;;9.90;99.90;;;;;;6272459;23;20004;-87
2022/11/09 04:15:56;;;;;;;100.65;37.70;;;9.90;99.90;;;;;;6271396;23;20035;-86
2022/11/09 04:18:22;;;;;;;95.50;37.40;;;9.90;99.90;;;;;;6272437;22;20059;-86
2022/11/09 04:20:48;;;;;;;92.50;35.10;;;9.80;99.90;;;;;;6247718;22;20027;-86
2022/11/09 04:23:14;;;;;;;87.07;37.58;;;9.90;99.90;;;;;;6272885;23;20026;-86
2022/11/09 04:25:41;;;;;;;84.25;36.67;;;9.90;99.90;;;;;;6274175;23;20018;-86
2022/11/09 04:28:10;;;;;;;85.68;36.53;;;9.90;99.90;;;;;;6271643;23;20060;-87
2022/11/09 04:30:36;;;;;;;85.57;35.72;;;9.90;99.90;;;;;;6268365;23;20015;-86
2022/11/09 04:33:03;;;;;;;85.80;36.05;;;9.90;99.90;;;;;;6271697;23;19984;-86
2022/11/09 04:35:31;;;;;;;90.25;38.28;;;9.90;99.90;;;;;;6273629;22;20084;-87
2022/11/09 04:37:58;;;;;;;90.00;38.17;;;9.90;99.90;;;;;;6272964;22;19992;-86
2022/11/09 04:40:27;;;;;;;92.43;38.83;;;9.90;99.90;;;;;;6268998;23;20008;-86
2022/11/09 04:42:53;;;;;;;96.70;37.88;;;9.90;99.90;;;;;;6268464;22;19998;-86
2022/11/09 04:45:20;;;;;;;84.65;37.50;;;9.90;99.90;;;;;;6269356;22;20031;-86
2022/11/09 04:47:46;;;;;;;94.28;38.17;;;9.90;99.90;;;;;;6270185;22;19996;-86
2022/11/09 04:50:12;;;;;;;94.50;39.22;;;9.90;99.90;;;;;;6269894;22;20059;-85
2022/11/09 04:52:38;;;;;;;88.90;38.03;;;9.80;99.90;;;;;;6273611;22;20015;-87
2022/11/09 04:55:05;;;;;;;96.93;39.65;;;9.90;99.90;;;;;;6268311;22;20011;-88
2022/11/09 04:57:31;;;;;;;96.95;38.45;;;9.90;99.90;;;;;;6265926;22;20027;-87
2022/11/09 04:59:57;;;;;;;103.30;40.55;;;9.90;99.90;;;;;;6264371;23;20007;-87
2022/11/09 05:02:22;;;;;;;97.20;40.15;;;9.90;99.90;;;;;;6267012;23;20000;-87
2022/11/09 05:04:48;;;;;;;102.95;40.28;;;9.80;99.90;;;;;;6265843;23;20004;-86
2022/11/09 05:07:14;;;;;;;98.72;39.55;;;9.80;99.90;;;;;;6268187;23;19988;-87
2022/11/09 05:09:40;;;;;;;100.50;40.78;;;9.80;99.90;;;;;;6273229;22;20026;-85
2022/11/09 05:12:06;;;;;;;106.32;42.47;;;9.80;99.90;;;;;;6273369;22;19999;-86
2022/11/09 05:14:32;;;;;;;95.65;38.58;;;9.80;99.90;;;;;;6273138;22;20031;-86
2022/11/09 05:16:57;;;;;;;106.07;40.95;;;9.80;99.90;;;;;;6271465;22;20004;-86
2022/11/09 05:19:23;;;;;;;118.50;42.38;;;9.80;99.90;;;;;;6268572;22;20019;-85
2022/11/09 05:21:49;;;;;;;109.30;41.67;;;9.80;99.90;;;;;;6271908;22;20068;-86
2022/11/09 05:24:15;;;;;;;111.10;42.85;;;9.80;99.90;;;;;;6272627;23;20011;-88
2022/11/09 05:26:41;;;;;;;105.93;41.97;;;9.80;99.90;;;;;;6272679;23;20008;-86
2022/11/09 05:29:09;;;;;;;110.03;41.55;;;9.80;99.90;;;;;;6269939;23;20010;-86
2022/11/09 05:31:37;;;;;;;100.00;40.10;;;9.90;99.90;;;;;;6271202;23;20023;-86
2022/11/09 05:34:04;;;;;;;105.35;42.67;;;9.80;99.90;;;;;;6273692;22;20054;-86
2022/11/09 05:36:32;;;;;;;112.13;42.35;;;9.80;99.90;;;;;;6272779;22;19989;-86
2022/11/09 05:38:58;;;;;;;109.75;40.88;;;9.80;99.90;;;;;;6272854;22;20095;-88
2022/11/09 05:41:25;;;;;;;105.82;40.95;;;9.80;99.90;;;;;;6270164;23;20011;-87
2022/11/09 05:43:51;;;;;;;110.50;40.63;;;9.80;99.90;;;;;;6270714;23;20044;-86
2022/11/09 05:46:18;;;;;;;116.57;40.72;;;9.80;99.90;;;;;;6269219;22;19989;-86
2022/11/09 05:48:44;;;;;;;109.18;42.13;;;9.80;99.90;;;;;;6265772;23;20004;-87
2022/11/09 05:51:12;;;;;;;108.18;39.63;;;9.70;99.90;;;;;;6264619;23;20006;-87
2022/11/09 05:53:39;;;;;;;110.47;42.47;;;9.70;99.90;;;;;;6268513;23;20008;-86
2022/11/09 05:56:10;;;;;;;117.85;41.60;;;9.80;99.90;;;;;;6273490;22;20016;-86
2022/11/09 05:58:37;;;;;;;112.93;42.25;;;9.70;99.90;;;;;;6272253;22;19996;-86
2022/11/09 06:01:09;;;;;;;114.97;40.35;;;9.70;99.90;;;;;;6272878;22;20007;-86
2022/11/09 06:03:35;;;;;;;107.25;40.00;;;9.70;99.90;;;;;;6269854;22;20008;-87
2022/11/09 06:06:04;;;;;;;105.53;39.35;;;9.80;99.90;;;;;;6257205;22;20027;-86
2022/11/09 06:08:31;;;;;;;114.07;41.92;;;9.70;99.90;;;;;;6234447;23;20015;-87
2022/11/09 06:11:05;;;;;;;117.15;41.08;;;9.70;99.90;;;;;;6232686;23;20138;-86
2022/11/09 06:13:31;;;;;;;115.05;40.22;;;9.70;99.90;;;;;;6257469;23;20025;-87
2022/11/09 06:15:59;;;;;;;112.85;40.53;;;9.60;99.90;;;;;;6233785;23;20000;-87
2022/11/09 06:18:27;;;;;;;114.78;39.53;;;9.60;99.90;;;;;;6264897;23;20004;-87
2022/11/09 06:20:59;;;;;;;111.75;39.33;;;9.60;99.90;;;;;;6240648;23;20015;-88
2022/11/09 06:23:25;;;;;;;113.03;38.22;;;9.60;99.90;;;;;;6235273;23;20186;-87
2022/11/09 06:26:09;;;;;;;109.10;39.03;;;9.60;99.90;;;;;;6259710;23;20031;-89
2022/11/09 06:28:36;;;;;;;115.30;39.58;;;9.60;99.90;;;;;;6267635;22;20039;-90
2022/11/09 06:31:04;;;;;;;114.00;39.05;;;9.50;99.90;;;;;;6271848;22;20008;-89
2022/11/09 06:33:31;;;;;;;117.07;39.10;;;9.50;99.90;;;;;;6270954;22;19992;-85
2022/11/09 06:35:58;;;;;;;110.20;36.72;;;9.50;99.90;;;;;;6270040;22;20035;-87
2022/11/09 06:38:27;;;;;;;108.45;39.42;;;9.50;99.90;;;;;;6267942;23;20012;-87
2022/11/09 06:40:57;;;;;;;108.90;37.55;;;9.50;99.90;;;;;;6266477;23;20012;-88
2022/11/09 06:43:24;;;;;;;98.75;35.55;;;9.50;99.90;;;;;;6265112;23;20030;-87
2022/11/09 06:45:50;;;;;;;109.75;37.70;;;9.60;99.90;;;;;;6267147;23;20004;-87
2022/11/09 06:48:16;;;;;;;97.25;36.90;;;9.50;99.90;;;;;;6268628;23;19988;-86
2022/11/09 06:50:42;;;;;;;101.97;36.75;;;9.50;99.90;;;;;;6269814;22;20008;-88
2022/11/09 06:53:10;;;;;;;107.60;36.28;;;9.50;99.90;;;;;;6267708;22;20208;-88
2022/11/09 06:58:35;;;;;;;110.15;36.45;;;9.50;99.90;;;;;;6168350;23;20076;-81
2022/11/09 07:01:09;;;;;;;92.30;34.53;;;9.40;99.90;;;;;;6167368;23;20012;-80
2022/11/09 07:03:36;;;;;;;109.20;38.58;;;9.50;99.90;;;;;;6166843;23;20010;-80
2022/11/09 07:06:07;;;;;;;97.25;34.65;;;9.50;99.90;;;;;;6173981;23;20024;-80
2022/11/09 07:08:34;;;;;;;102.20;35.20;;;9.40;99.90;;;;;;6196142;23;20008;-79
2022/11/09 07:11:12;;;;;;;98.20;36.47;;;9.40;99.90;;;;;;6195389;23;20005;-81
2022/11/09 07:13:39;;;;;;;101.22;36.20;;;9.40;99.90;;;;;;6192698;23;20024;-81
2022/11/09 07:16:06;;;;;;;103.55;36.92;;;9.40;99.90;;;;;;6202398;23;20009;-81
2022/11/09 07:18:32;;;;;;;104.25;35.78;;;9.40;99.90;;;;;;6203719;23;20005;-80
2022/11/09 07:20:58;;;;;;;99.35;34.78;;;9.40;99.90;;;;;;6204357;23;20009;-81
2022/11/09 07:23:24;;;;;;;94.40;34.28;;;9.40;99.90;;;;;;6202567;23;20012;-80
2022/11/09 07:25:51;;;;;;;89.80;33.00;;;9.30;99.90;;;;;;6203082;23;19997;-81
2022/11/09 07:28:17;;;;;;;104.50;35.53;;;9.30;99.90;;;;;;6207629;23;20005;-80
2022/11/09 07:30:42;;;;;;;95.20;33.35;;;9.40;99.90;;;;;;6209569;23;20020;-79
2022/11/09 07:33:19;;;;;;;93.95;35.28;;;9.40;99.90;;;;;;6212136;23;20525;-80
2022/11/09 07:35:46;;;;;;;88.13;32.47;;;9.40;99.90;;;;;;6207733;23;20016;-78
2022/11/09 07:38:14;;;;;;;109.13;35.58;;;9.40;99.90;;;;;;6207723;23;20056;-80
2022/11/09 07:40:43;;;;;;;90.70;33.50;;;9.40;99.90;;;;;;6203955;23;20005;-80
2022/11/09 07:43:10;;;;;;;87.72;32.17;;;9.40;99.90;;;;;;6202518;23;20039;-80
2022/11/09 07:45:38;;;;;;;91.57;32.70;;;9.40;99.90;;;;;;6203124;23;20005;-80
2022/11/09 07:48:06;;;;;;;97.80;32.13;;;9.30;99.90;;;;;;6205291;23;19989;-81
2022/11/09 07:50:34;;;;;;;94.18;32.47;;;9.30;99.90;;;;;;6203990;23;20288;-80
2022/11/09 07:53:01;;;;;;;92.93;34.70;;;9.30;99.90;;;;;;6202489;23;20037;-80
2022/11/09 07:55:28;;;;;;;96.75;34.50;;;9.30;99.90;;;;;;6201972;23;20088;-81
2022/11/09 07:57:58;;;;;;;84.70;34.47;;;9.40;99.90;;;;;;6176802;23;20013;-80
2022/11/09 08:00:26;;;;;;;82.60;32.97;;;9.40;99.90;;;;;;6170038;23;20383;-81
2022/11/09 08:02:52;;;;;;;90.80;32.80;;;9.40;99.90;;;;;;6172741;23;19997;-80
2022/11/09 08:05:18;;;;;;;93.82;34.45;;;9.40;99.90;;;;;;6171050;23;20013;-78
2022/11/09 08:07:43;;;;;;;94.70;34.40;;;9.50;99.90;;;;;;6172620;23;20001;-80
2022/11/09 08:10:09;;;;;;;88.72;32.53;;;9.50;99.90;;;;;;6170310;23;20005;-81
2022/11/09 08:12:35;;;;;;;89.70;33.35;;;9.50;99.90;;;;;;6178446;23;20001;-80
2022/11/09 08:15:01;;;;;;;88.32;34.25;;;9.50;99.90;;;;;;6176090;23;20016;-80
2022/11/09 08:17:28;;;;;;;89.05;31.48;;;9.50;99.90;;;;;;6174286;23;20001;-86
2022/11/09 08:19:54;;;;;;;88.97;33.20;;;9.50;99.90;;;;;;6174065;23;20017;-80
2022/11/09 08:22:19;;;;;;;92.63;32.65;;;9.50;99.90;;;;;;6172648;23;20008;-79
2022/11/09 08:24:45;;;;;;;92.60;33.72;;;9.50;99.90;;;;;;6170938;23;20064;-80
2022/11/09 08:27:11;;;;;;;91.75;32.58;;;9.60;99.90;;;;;;6167171;23;20305;-81
2022/11/09 08:29:37;;;;;;;91.32;33.88;;;9.60;99.90;;;;;;6163588;23;20028;-79
2022/11/09 08:32:02;;;;;;;89.47;33.45;;;9.70;99.90;;;;;;6161418;23;20012;-80
2022/11/09 08:34:28;;;;;;;89.63;33.72;;;9.60;99.90;;;;;;6170437;23;20036;-80
2022/11/09 08:36:58;;;;;;;88.47;33.20;;;9.60;99.90;;;;;;6168888;23;20001;-79
2022/11/09 08:39:24;;;;;;;89.82;33.03;;;9.60;99.90;;;;;;6163515;23;20005;-79
2022/11/09 08:41:49;;;;;;;87.88;32.88;;;9.50;99.90;;;;;;6165117;23;20019;-79
2022/11/09 08:44:15;;;;;;;86.43;33.28;;;9.60;99.90;;;;;;6167118;23;20328;-80
2022/11/09 08:46:41;;;;;;;103.20;33.47;;;9.70;99.90;;;;;;6172286;23;20045;-79
2022/11/09 08:49:07;;;;;;;96.47;33.20;;;9.70;99.90;;;;;;6175651;23;20005;-78
2022/11/09 08:51:33;;;;;;;85.45;32.55;;;9.70;99.90;;;;;;6169264;23;20092;-79
2022/11/09 08:53:58;;;;;;;93.30;33.58;;;9.70;99.90;;;;;;6164491;23;20524;-79
2022/11/09 08:56:24;;;;;;;84.45;30.67;;;9.70;99.90;;;;;;6162854;23;20040;-78
2022/11/09 08:58:50;;;;;;;87.43;34.38;;;9.70;99.90;;;;;;6163693;23;20681;-80
2022/11/09 09:01:16;;;;;;;82.43;32.20;;;9.70;99.90;;;;;;6163996;23;20118;-80
2022/11/09 09:03:42;;;;;;;92.65;33.35;;;9.70;99.90;;;;;;6165635;23;20440;-82
2022/11/09 09:06:08;;;;;;;96.40;33.47;;;9.70;99.90;;;;;;6165163;23;20121;-80
2022/11/09 09:08:34;;;;;;;86.95;33.63;;;9.70;99.90;;;;;;6164519;23;20005;-80
2022/11/09 09:11:04;;;;;;;91.65;33.22;;;9.70;99.90;;;;;;6164702;23;20006;-79
2022/11/09 09:13:30;;;;;;;82.22;31.63;;;9.70;99.90;;;;;;6166339;23;20005;-80
2022/11/09 09:15:56;;;;;;;85.63;33.13;;;9.70;99.90;;;;;;6165465;23;20001;-81
2022/11/09 09:18:22;;;;;;;94.13;35.88;;;9.80;99.90;;;;;;6165096;23;20062;-80
2022/11/09 09:20:48;;;;;;;94.25;33.03;;;9.80;99.90;;;;;;6162000;23;20005;-80
2022/11/09 09:23:15;;;;;;;83.65;32.13;;;9.80;99.90;;;;;;6163851;23;20017;-80
2022/11/09 09:25:42;;;;;;;83.82;31.50;;;9.90;99.90;;;;;;6168799;23;19997;-81
2022/11/09 09:28:08;;;;;;;88.57;29.85;;;9.80;99.90;;;;;;6166883;23;20032;-78
2022/11/09 09:30:34;;;;;;;86.43;31.45;;;9.90;99.90;;;;;;6161511;23;20005;-80
2022/11/09 09:33:00;;;;;;;77.07;30.10;;;9.80;99.90;;;;;;6164206;23;20020;-79
2022/11/09 09:35:27;;;;;;;87.95;32.58;;;9.80;99.90;;;;;;6170906;23;20056;-79
2022/11/09 09:37:53;;;;;;;87.57;32.10;;;9.80;99.90;;;;;;6170036;23;20010;-80
2022/11/09 09:40:23;;;;;;;91.45;29.38;;;9.80;99.90;;;;;;6160718;23;20559;-78
2022/11/09 09:42:51;;;;;;;78.85;29.15;;;9.90;99.90;;;;;;6170741;23;20009;-79
2022/11/09 09:45:22;;;;;;;77.43;30.15;;;9.90;99.90;;;;;;6171144;23;20077;-79
2022/11/09 09:48:12;;;;;;;73.72;29.05;;;9.90;99.90;;;;;;6171462;23;20287;-80
2022/11/09 09:50:49;;;;;;;82.85;29.70;;;9.90;99.90;;;;;;6170314;23;20404;-79
2022/11/09 09:53:32;;;;;;;86.70;31.35;;;9.90;99.90;;;;;;6170804;23;20006;-79
2022/11/09 09:56:22;;;;;;;80.20;29.80;;;10.00;99.90;;;;;;6171215;23;20009;-78
2022/11/09 09:59:28;;;;;;;82.40;29.13;;;10.00;99.90;;;;;;6169808;23;20009;-80
2022/11/09 10:01:56;;;;;;;76.28;29.35;;;10.10;99.90;;;;;;6150531;23;20017;-80
2022/11/09 10:04:31;;;;;;;73.13;29.05;;;10.10;99.90;;;;;;6168398;23;20010;-80
2022/11/09 10:07:03;;;;;;;73.82;27.80;;;10.10;99.90;;;;;;6167523;23;20006;-79
2022/11/09 10:09:38;;;;;;;77.22;28.77;;;10.10;99.90;;;;;;6162165;23;20036;-80
2022/11/09 10:12:30;;;;;;;78.20;30.02;;;10.10;99.90;;;;;;6161642;23;19997;-80
2022/11/09 10:15:11;;;;;;;85.90;29.60;;;10.20;99.90;;;;;;6161541;23;20009;-79
2022/11/09 10:17:59;;;;;;;74.95;28.40;;;10.10;99.90;;;;;;6162036;23;20006;-80
2022/11/09 10:21:10;;;;;;;71.32;28.70;;;10.00;99.90;;;;;;6163624;23;20010;-80
2022/11/09 10:23:42;;;;;;;80.25;28.02;;;10.10;99.90;;;;;;6166840;23;20033;-79
2022/11/09 10:26:14;;;;;;;73.95;29.23;;;10.10;99.90;;;;;;6168266;23;20095;-80
2022/11/09 10:28:41;;;;;;;76.65;28.77;;;10.20;99.90;;;;;;6164074;23;20009;-80
2022/11/09 10:31:17;;;;;;;62.03;26.05;;;10.20;99.90;;;;;;6162513;23;20011;-81
2022/11/09 10:33:53;;;;;;;68.05;26.58;;;10.30;99.90;;;;;;6163088;23;20009;-82
2022/11/09 10:36:29;;;;;;;68.25;27.38;;;10.30;99.90;;;;;;6163429;23;20054;-82
2022/11/09 10:38:58;;;;;;;66.22;26.85;;;10.30;99.90;;;;;;6163077;23;20012;-82
2022/11/09 10:41:45;;;;;;;67.68;26.70;;;10.40;99.90;;;;;;6162126;23;20016;-82
2022/11/09 10:44:30;;;;;;;60.58;25.55;;;10.50;99.90;;;;;;6161379;23;20064;-81
2022/11/09 10:47:16;;;;;;;65.88;25.88;;;10.60;99.90;;;;;;6162153;23;20041;-82
2022/11/09 10:50:16;;;;;;;75.57;29.10;;;10.60;99.90;;;;;;6160921;23;20118;-82
2022/11/09 10:53:16;;;;;;;65.85;26.70;;;10.60;99.90;;;;;;6173904;23;20518;-79
2022/11/09 10:56:19;;;;;;;61.88;26.65;;;10.60;99.90;;;;;;6163952;23;20060;-81
2022/11/09 10:59:29;;;;;;;67.13;25.63;;;10.60;99.90;;;;;;6160425;23;20024;-83
2022/11/09 11:02:41;;;;;;;66.25;25.48;;;10.60;99.90;;;;;;6173036;23;20048;-80
2022/11/09 11:05:28;;;;;;;73.75;27.02;;;10.50;99.90;;;;;;6173548;23;20045;-81
2022/11/09 11:08:24;;;;;;;65.65;24.73;;;10.40;99.90;;;;;;6174660;23;20024;-80
2022/11/09 11:11:19;;;;;;;64.07;25.35;;;10.50;99.90;;;;;;6174922;23;20028;-81
2022/11/09 11:14:33;;;;;;;66.03;27.98;;;10.60;99.90;;;;;;6174367;23;20091;-82
2022/11/09 11:17:34;;;;;;;66.03;26.60;;;10.70;99.90;;;;;;6162641;23;20129;-83
2022/11/09 11:20:28;;;;;;;70.78;28.63;;;10.70;99.90;;;;;;6165233;23;20029;-81
2022/11/09 11:23:12;;;;;;;66.40;27.33;;;10.70;99.90;;;;;;6162445;23;20015;-82
2022/11/09 11:26:11;;;;;;;64.05;27.75;;;10.70;99.90;;;;;;6161669;23;20021;-82
2022/11/09 11:29:01;;;;;;;70.63;27.60;;;10.70;99.90;;;;;;6161295;23;20016;-82
2022/11/09 11:31:45;;;;;;;68.78;28.02;;;10.70;99.90;;;;;;6162373;23;20021;-82
2022/11/09 11:34:31;;;;;;;63.63;25.73;;;10.80;99.90;;;;;;6164596;23;20094;-81
2022/11/09 11:37:36;;;;;;;62.35;26.90;;;10.80;99.90;;;;;;6172126;23;20049;-80
2022/11/09 11:40:31;;;;;;;58.17;24.63;;;10.90;99.90;;;;;;6172349;23;20044;-83
2022/11/09 11:43:24;;;;;;;66.37;26.97;;;11.00;99.90;;;;;;6172617;23;20021;-80
2022/11/09 11:46:15;;;;;;;69.22;25.63;;;11.10;99.90;;;;;;6168977;23;20265;-80
2022/11/09 11:49:41;;;;;;;52.15;23.63;;;11.10;99.90;;;;;;6171943;23;20021;-80
2022/11/09 11:52:44;;;;;;;58.47;25.65;;;11.20;99.90;;;;;;6156763;23;20020;-81
2022/11/09 11:55:58;;;;;;;60.55;25.08;;;11.30;99.90;;;;;;6170478;23;20243;-81
2022/11/09 11:59:27;;;;;;;60.55;24.83;;;11.30;99.90;;;;;;6194538;23;20489;-83
2022/11/09 12:02:44;;;;;;;65.00;26.05;;;11.20;99.90;;;;;;6193921;23;20028;-82
2022/11/09 12:05:52;;;;;;;66.35;27.08;;;11.30;99.90;;;;;;6192916;23;20394;-82
2022/11/09 12:08:56;;;;;;;61.47;25.83;;;11.30;99.90;;;;;;6200921;23;20024;-82
2022/11/09 12:12:08;;;;;;;57.72;24.83;;;11.30;99.90;;;;;;6201446;23;20020;-80
2022/11/09 12:15:21;;;;;;;55.67;24.90;;;11.30;99.90;;;;;;6203049;23;20044;-79
2022/11/09 12:18:24;;;;;;;66.35;25.73;;;11.30;99.90;;;;;;6202315;23;20020;-80
2022/11/09 12:21:36;;;;;;;67.70;26.35;;;11.30;99.90;;;;;;6201460;23;20076;-80
2022/11/09 12:24:30;;;;;;;63.05;26.08;;;11.20;99.90;;;;;;6193681;23;20473;-82
2022/11/09 12:27:36;;;;;;;62.38;25.67;;;11.20;99.90;;;;;;6191979;23;20040;-82
2022/11/09 12:30:22;;;;;;;;;;;11.20;99.90;;;;;;6192298;23;20020;-82
2022/11/09 12:33:20;;;;;;;64.43;26.35;;;11.20;99.90;;;;;;6193947;23;19928;-82
2022/11/09 12:36:28;;;;;;;61.72;25.77;;;11.10;99.90;;;;;;6195515;23;20044;-80
2022/11/09 12:39:35;;;;;;;72.53;26.83;;;11.00;99.90;;;;;;6194466;23;20035;-81
2022/11/09 12:42:34;;;;;;;73.10;26.83;;;11.10;99.90;;;;;;6199702;23;20051;-81
2022/11/09 12:45:36;;;;;;;64.28;26.02;;;11.10;99.90;;;;;;6197480;23;20016;-82
2022/11/09 12:48:24;;;;;;;59.33;25.25;;;11.20;99.90;;;;;;6194243;23;20016;-83
2022/11/09 12:51:09;;;;;;;65.75;24.77;;;11.30;99.90;;;;;;6195763;23;20023;-80
2022/11/09 12:53:55;;;;;;;63.30;26.02;;;11.20;99.90;;;;;;6196845;23;20020;-80
2022/11/09 12:56:54;;;;;;;64.20;25.88;;;11.30;99.90;;;;;;6204961;22;20062;-87
2022/11/09 12:59:48;;;;;;;63.53;27.33;;;11.40;99.90;;;;;;6267050;23;20043;-88
2022/11/09 13:02:36;;;;;;;58.50;24.60;;;11.50;99.90;;;;;;6272501;22;20039;-87
2022/11/09 13:05:39;;;;;;;61.53;25.83;;;11.30;99.90;;;;;;6267064;22;20145;-88
2022/11/09 13:08:28;;;;;;;58.05;24.17;;;11.40;99.90;;;;;;6230943;23;20047;-88
2022/11/09 13:11:25;;;;;;;60.30;26.48;;;11.40;99.90;;;;;;6230543;23;20019;-88